Hancock, New York
Current Conditions -  °F | °C
As of 2:15 PM on Thursday 23 Oct 2014 (Local Time) from KMSV Reporting Station
Overcast Overcast  
Wind Chill:   Ceiling: 1800
Heat Index:   Visibility: 10mi
Dew Point:   Wind: 13mph
Humidity: 87%   Direction: 350°N
Pressure: 29.79"   Gusts: 23mph
Location:  41.95°N, 75.28°W
Report Text: KMSV 231815Z AUTO 35011G20KT 10SM BKN018 OVC050 08/06 A2979 RMK AO1
Loading
Personal Weather Stations






























Interactive Weather Map
Tropical Storm Tracking
New forecast layout! Learn more

10-Day Weather Forecast

Advertisements
Track Severe Weather on mobile